sensor_id;sensor_type;location;lat;lon;timestamp;P1;durP1;ratioP1;P2;durP2;ratioP2
35084;SDS011;21267;51.032;6.998;2023-11-21T00:01:06;18.88;;;12.57;;
35084;SDS011;21267;51.032;6.998;2023-11-21T00:03:35;17.45;;;13.45;;
35084;SDS011;21267;51.032;6.998;2023-11-21T00:06:02;17.45;;;13.20;;
35084;SDS011;21267;51.032;6.998;2023-11-21T00:08:29;16.80;;;12.80;;
35084;SDS011;21267;51.032;6.998;2023-11-21T00:10:56;22.02;;;13.50;;
35084;SDS011;21267;51.032;6.998;2023-11-21T00:13:23;22.58;;;13.18;;
35084;SDS011;21267;51.032;6.998;2023-11-21T00:15:50;22.77;;;13.47;;
35084;SDS011;21267;51.032;6.998;2023-11-21T00:18:17;19.13;;;13.45;;
35084;SDS011;21267;51.032;6.998;2023-11-21T00:20:44;27.07;;;13.80;;
35084;SDS011;21267;51.032;6.998;2023-11-21T00:23:11;21.75;;;14.00;;
35084;SDS011;21267;51.032;6.998;2023-11-21T00:25:38;19.33;;;14.48;;
35084;SDS011;21267;51.032;6.998;2023-11-21T00:28:05;21.98;;;14.35;;
35084;SDS011;21267;51.032;6.998;2023-11-21T00:30:32;23.80;;;14.32;;
35084;SDS011;21267;51.032;6.998;2023-11-21T00:33:00;21.33;;;14.20;;
35084;SDS011;21267;51.032;6.998;2023-11-21T00:35:27;22.13;;;15.53;;
35084;SDS011;21267;51.032;6.998;2023-11-21T00:37:53;26.35;;;14.75;;
35084;SDS011;21267;51.032;6.998;2023-11-21T00:40:21;26.75;;;15.65;;
35084;SDS011;21267;51.032;6.998;2023-11-21T00:42:48;23.80;;;15.18;;
35084;SDS011;21267;51.032;6.998;2023-11-21T00:45:15;19.00;;;11.87;;
35084;SDS011;21267;51.032;6.998;2023-11-21T00:47:43;29.90;;;16.98;;
35084;SDS011;21267;51.032;6.998;2023-11-21T00:50:09;24.38;;;16.40;;
35084;SDS011;21267;51.032;6.998;2023-11-21T00:52:36;29.45;;;16.30;;
35084;SDS011;21267;51.032;6.998;2023-11-21T00:55:04;23.77;;;14.77;;
35084;SDS011;21267;51.032;6.998;2023-11-21T01:01:38;25.55;;;17.80;;
35084;SDS011;21267;51.032;6.998;2023-11-21T01:04:05;24.63;;;17.85;;
35084;SDS011;21267;51.032;6.998;2023-11-21T01:06:33;32.83;;;20.50;;
35084;SDS011;21267;51.032;6.998;2023-11-21T01:09:00;23.17;;;13.75;;
35084;SDS011;21267;51.032;6.998;2023-11-21T01:11:27;28.33;;;18.00;;
35084;SDS011;21267;51.032;6.998;2023-11-21T01:13:54;33.35;;;17.40;;
35084;SDS011;21267;51.032;6.998;2023-11-21T01:16:21;24.83;;;17.10;;
35084;SDS011;21267;51.032;6.998;2023-11-21T01:18:49;25.67;;;16.35;;
35084;SDS011;21267;51.032;6.998;2023-11-21T01:21:16;25.35;;;17.38;;
35084;SDS011;21267;51.032;6.998;2023-11-21T01:23:44;25.52;;;16.85;;
35084;SDS011;21267;51.032;6.998;2023-11-21T01:26:11;28.77;;;18.00;;
35084;SDS011;21267;51.032;6.998;2023-11-21T01:28:38;22.50;;;17.23;;
35084;SDS011;21267;51.032;6.998;2023-11-21T01:31:05;34.03;;;17.37;;
35084;SDS011;21267;51.032;6.998;2023-11-21T01:33:33;28.98;;;16.83;;
35084;SDS011;21267;51.032;6.998;2023-11-21T01:36:00;24.23;;;16.43;;
35084;SDS011;21267;51.032;6.998;2023-11-21T01:38:27;26.63;;;16.98;;
35084;SDS011;21267;51.032;6.998;2023-11-21T01:40:54;26.00;;;16.10;;
35084;SDS011;21267;51.032;6.998;2023-11-21T01:43:21;21.98;;;15.73;;
35084;SDS011;21267;51.032;6.998;2023-11-21T01:45:48;25.38;;;16.70;;
35084;SDS011;21267;51.032;6.998;2023-11-21T01:48:16;24.70;;;17.50;;
35084;SDS011;21267;51.032;6.998;2023-11-21T01:50:43;22.10;;;16.00;;
35084;SDS011;21267;51.032;6.998;2023-11-21T01:53:12;27.65;;;16.98;;
35084;SDS011;21267;51.032;6.998;2023-11-21T01:55:40;22.83;;;16.48;;
35084;SDS011;21267;51.032;6.998;2023-11-21T01:58:08;23.40;;;16.23;;
35084;SDS011;21267;51.032;6.998;2023-11-21T02:00:36;27.00;;;16.75;;
35084;SDS011;21267;51.032;6.998;2023-11-21T02:03:05;25.00;;;16.90;;
35084;SDS011;21267;51.032;6.998;2023-11-21T02:05:33;26.30;;;16.50;;
35084;SDS011;21267;51.032;6.998;2023-11-21T02:08:00;23.50;;;16.65;;
35084;SDS011;21267;51.032;6.998;2023-11-21T02:10:30;27.20;;;17.67;;
35084;SDS011;21267;51.032;6.998;2023-11-21T02:12:57;26.27;;;17.15;;
35084;SDS011;21267;51.032;6.998;2023-11-21T02:15:25;25.13;;;17.80;;
35084;SDS011;21267;51.032;6.998;2023-11-21T02:17:55;26.75;;;16.42;;
35084;SDS011;21267;51.032;6.998;2023-11-21T02:20:25;27.33;;;16.88;;
35084;SDS011;21267;51.032;6.998;2023-11-21T02:22:53;25.27;;;17.63;;
35084;SDS011;21267;51.032;6.998;2023-11-21T02:25:25;23.80;;;16.35;;
35084;SDS011;21267;51.032;6.998;2023-11-21T02:27:54;26.77;;;18.48;;
35084;SDS011;21267;51.032;6.998;2023-11-21T02:32:51;24.63;;;16.75;;
35084;SDS011;21267;51.032;6.998;2023-11-21T02:35:24;28.30;;;16.38;;
35084;SDS011;21267;51.032;6.998;2023-11-21T02:37:54;22.08;;;16.55;;
35084;SDS011;21267;51.032;6.998;2023-11-21T02:40:21;24.70;;;17.20;;
35084;SDS011;21267;51.032;6.998;2023-11-21T02:42:48;23.48;;;17.17;;
35084;SDS011;21267;51.032;6.998;2023-11-21T02:45:18;26.08;;;17.08;;
35084;SDS011;21267;51.032;6.998;2023-11-21T02:47:48;25.92;;;17.23;;
35084;SDS011;21267;51.032;6.998;2023-11-21T02:50:16;23.58;;;17.10;;
35084;SDS011;21267;51.032;6.998;2023-11-21T02:52:46;23.27;;;17.08;;
35084;SDS011;21267;51.032;6.998;2023-11-21T02:55:13;19.80;;;13.33;;
35084;SDS011;21267;51.032;6.998;2023-11-21T02:57:41;20.30;;;16.98;;
35084;SDS011;21267;51.032;6.998;2023-11-21T03:00:10;27.92;;;17.80;;
35084;SDS011;21267;51.032;6.998;2023-11-21T03:02:40;25.75;;;17.15;;
35084;SDS011;21267;51.032;6.998;2023-11-21T03:05:07;23.90;;;17.30;;
35084;SDS011;21267;51.032;6.998;2023-11-21T03:07:38;26.38;;;17.85;;
35084;SDS011;21267;51.032;6.998;2023-11-21T03:10:06;27.60;;;17.15;;
35084;SDS011;21267;51.032;6.998;2023-11-21T03:12:36;29.08;;;17.83;;
35084;SDS011;21267;51.032;6.998;2023-11-21T03:15:07;24.45;;;16.38;;
35084;SDS011;21267;51.032;6.998;2023-11-21T03:17:35;25.02;;;16.38;;
35084;SDS011;21267;51.032;6.998;2023-11-21T03:20:03;23.23;;;16.23;;
35084;SDS011;21267;51.032;6.998;2023-11-21T03:22:31;26.80;;;17.17;;
35084;SDS011;21267;51.032;6.998;2023-11-21T03:24:58;24.50;;;16.90;;
35084;SDS011;21267;51.032;6.998;2023-11-21T03:27:25;20.60;;;15.50;;
35084;SDS011;21267;51.032;6.998;2023-11-21T03:29:52;26.13;;;17.03;;
35084;SDS011;21267;51.032;6.998;2023-11-21T03:32:21;25.08;;;17.13;;
35084;SDS011;21267;51.032;6.998;2023-11-21T03:34:54;21.48;;;16.00;;
35084;SDS011;21267;51.032;6.998;2023-11-21T03:37:23;27.38;;;16.33;;
35084;SDS011;21267;51.032;6.998;2023-11-21T03:40:00;24.00;;;16.00;;
35084;SDS011;21267;51.032;6.998;2023-11-21T03:42:27;25.17;;;16.67;;
35084;SDS011;21267;51.032;6.998;2023-11-21T03:44:53;23.52;;;16.02;;
35084;SDS011;21267;51.032;6.998;2023-11-21T03:47:21;29.57;;;17.30;;
35084;SDS011;21267;51.032;6.998;2023-11-21T03:52:15;27.42;;;16.55;;
35084;SDS011;21267;51.032;6.998;2023-11-21T03:54:43;38.33;;;17.27;;
35084;SDS011;21267;51.032;6.998;2023-11-21T03:57:10;27.27;;;16.37;;
35084;SDS011;21267;51.032;6.998;2023-11-21T03:59:41;28.13;;;14.98;;
35084;SDS011;21267;51.032;6.998;2023-11-21T04:02:09;25.02;;;16.23;;
35084;SDS011;21267;51.032;6.998;2023-11-21T04:04:38;23.98;;;15.65;;
35084;SDS011;21267;51.032;6.998;2023-11-21T04:07:05;28.92;;;16.52;;
35084;SDS011;21267;51.032;6.998;2023-11-21T04:09:32;23.98;;;15.43;;
35084;SDS011;21267;51.032;6.998;2023-11-21T04:11:59;26.85;;;15.95;;
35084;SDS011;21267;51.032;6.998;2023-11-21T04:14:26;29.10;;;16.17;;
35084;SDS011;21267;51.032;6.998;2023-11-21T04:16:53;28.07;;;16.90;;
35084;SDS011;21267;51.032;6.998;2023-11-21T04:19:20;29.45;;;16.63;;
35084;SDS011;21267;51.032;6.998;2023-11-21T04:21:47;27.40;;;15.60;;
35084;SDS011;21267;51.032;6.998;2023-11-21T04:24:14;27.70;;;17.33;;
35084;SDS011;21267;51.032;6.998;2023-11-21T04:26:41;26.67;;;17.20;;
35084;SDS011;21267;51.032;6.998;2023-11-21T04:29:08;28.42;;;16.70;;
35084;SDS011;21267;51.032;6.998;2023-11-21T04:31:35;25.63;;;16.40;;
35084;SDS011;21267;51.032;6.998;2023-11-21T04:34:02;26.85;;;16.13;;
35084;SDS011;21267;51.032;6.998;2023-11-21T04:36:30;22.75;;;17.00;;
35084;SDS011;21267;51.032;6.998;2023-11-21T04:38:57;27.43;;;15.90;;
35084;SDS011;21267;51.032;6.998;2023-11-21T04:41:24;24.00;;;15.87;;
35084;SDS011;21267;51.032;6.998;2023-11-21T04:43:51;22.55;;;15.15;;
35084;SDS011;21267;51.032;6.998;2023-11-21T04:46:18;25.83;;;16.80;;
35084;SDS011;21267;51.032;6.998;2023-11-21T04:48:45;26.43;;;15.97;;
35084;SDS011;21267;51.032;6.998;2023-11-21T04:51:13;22.92;;;15.35;;
35084;SDS011;21267;51.032;6.998;2023-11-21T04:53:40;31.07;;;18.53;;
35084;SDS011;21267;51.032;6.998;2023-11-21T04:56:07;23.77;;;16.80;;
35084;SDS011;21267;51.032;6.998;2023-11-21T04:58:34;25.73;;;15.60;;
35084;SDS011;21267;51.032;6.998;2023-11-21T05:01:02;28.25;;;16.65;;
35084;SDS011;21267;51.032;6.998;2023-11-21T05:03:33;25.98;;;16.80;;
35084;SDS011;21267;51.032;6.998;2023-11-21T05:06:01;27.65;;;15.70;;
35084;SDS011;21267;51.032;6.998;2023-11-21T05:08:27;25.90;;;16.75;;
35084;SDS011;21267;51.032;6.998;2023-11-21T05:10:54;29.30;;;17.95;;
35084;SDS011;21267;51.032;6.998;2023-11-21T05:13:21;31.13;;;18.33;;
35084;SDS011;21267;51.032;6.998;2023-11-21T05:15:49;25.10;;;16.73;;
35084;SDS011;21267;51.032;6.998;2023-11-21T05:18:16;25.75;;;16.15;;
35084;SDS011;21267;51.032;6.998;2023-11-21T05:20:43;32.83;;;16.70;;
35084;SDS011;21267;51.032;6.998;2023-11-21T05:23:09;26.38;;;16.55;;
35084;SDS011;21267;51.032;6.998;2023-11-21T05:25:36;24.33;;;17.15;;
35084;SDS011;21267;51.032;6.998;2023-11-21T05:28:06;29.27;;;17.40;;
35084;SDS011;21267;51.032;6.998;2023-11-21T05:30:33;27.73;;;17.30;;
35084;SDS011;21267;51.032;6.998;2023-11-21T05:33:00;27.57;;;17.47;;
35084;SDS011;21267;51.032;6.998;2023-11-21T05:35:27;30.60;;;17.53;;
35084;SDS011;21267;51.032;6.998;2023-11-21T05:37:54;35.22;;;19.42;;
35084;SDS011;21267;51.032;6.998;2023-11-21T05:40:21;36.10;;;20.07;;
35084;SDS011;21267;51.032;6.998;2023-11-21T05:42:49;39.58;;;22.75;;
35084;SDS011;21267;51.032;6.998;2023-11-21T05:45:18;34.28;;;22.08;;
35084;SDS011;21267;51.032;6.998;2023-11-21T05:47:45;36.43;;;22.97;;
35084;SDS011;21267;51.032;6.998;2023-11-21T05:50:15;45.22;;;22.73;;
35084;SDS011;21267;51.032;6.998;2023-11-21T05:52:44;43.95;;;24.25;;
35084;SDS011;21267;51.032;6.998;2023-11-21T05:55:12;41.42;;;24.25;;
35084;SDS011;21267;51.032;6.998;2023-11-21T05:57:40;39.38;;;23.10;;
35084;SDS011;21267;51.032;6.998;2023-11-21T06:00:12;40.05;;;23.95;;
35084;SDS011;21267;51.032;6.998;2023-11-21T06:02:48;43.63;;;25.00;;
35084;SDS011;21267;51.032;6.998;2023-11-21T06:05:25;46.33;;;26.40;;
35084;SDS011;21267;51.032;6.998;2023-11-21T06:07:53;51.00;;;34.47;;
35084;SDS011;21267;51.032;6.998;2023-11-21T06:10:22;48.88;;;27.05;;
35084;SDS011;21267;51.032;6.998;2023-11-21T06:12:51;43.40;;;25.90;;
35084;SDS011;21267;51.032;6.998;2023-11-21T06:15:19;47.47;;;24.75;;
35084;SDS011;21267;51.032;6.998;2023-11-21T06:17:48;42.70;;;25.58;;
35084;SDS011;21267;51.032;6.998;2023-11-21T06:20:19;40.40;;;25.00;;
35084;SDS011;21267;51.032;6.998;2023-11-21T06:22:47;44.78;;;26.33;;
35084;SDS011;21267;51.032;6.998;2023-11-21T06:25:15;40.03;;;24.70;;
35084;SDS011;21267;51.032;6.998;2023-11-21T06:27:47;40.05;;;24.15;;
35084;SDS011;21267;51.032;6.998;2023-11-21T06:30:15;44.28;;;24.83;;
35084;SDS011;21267;51.032;6.998;2023-11-21T06:32:42;43.40;;;24.80;;
35084;SDS011;21267;51.032;6.998;2023-11-21T06:35:14;47.30;;;25.00;;
35084;SDS011;21267;51.032;6.998;2023-11-21T06:37:43;45.65;;;25.08;;
35084;SDS011;21267;51.032;6.998;2023-11-21T06:40:18;41.63;;;26.35;;
35084;SDS011;21267;51.032;6.998;2023-11-21T06:42:47;41.90;;;25.58;;
35084;SDS011;21267;51.032;6.998;2023-11-21T06:45:14;43.22;;;25.48;;
35084;SDS011;21267;51.032;6.998;2023-11-21T06:52:37;45.60;;;25.58;;
35084;SDS011;21267;51.032;6.998;2023-11-21T06:55:05;44.25;;;26.63;;
35084;SDS011;21267;51.032;6.998;2023-11-21T06:57:35;47.90;;;27.48;;
35084;SDS011;21267;51.032;6.998;2023-11-21T07:00:02;46.90;;;27.23;;
35084;SDS011;21267;51.032;6.998;2023-11-21T07:02:30;49.53;;;26.23;;
35084;SDS011;21267;51.032;6.998;2023-11-21T07:04:58;53.53;;;27.13;;
35084;SDS011;21267;51.032;6.998;2023-11-21T07:07:25;50.73;;;27.67;;
35084;SDS011;21267;51.032;6.998;2023-11-21T07:09:52;49.43;;;26.77;;
35084;SDS011;21267;51.032;6.998;2023-11-21T07:12:19;46.20;;;28.10;;
35084;SDS011;21267;51.032;6.998;2023-11-21T07:14:46;51.73;;;26.70;;
35084;SDS011;21267;51.032;6.998;2023-11-21T07:19:41;45.05;;;26.65;;
35084;SDS011;21267;51.032;6.998;2023-11-21T07:22:08;47.75;;;27.88;;
35084;SDS011;21267;51.032;6.998;2023-11-21T07:24:36;48.58;;;28.27;;
35084;SDS011;21267;51.032;6.998;2023-11-21T07:27:03;49.47;;;28.35;;
35084;SDS011;21267;51.032;6.998;2023-11-21T07:33:38;48.75;;;28.88;;
35084;SDS011;21267;51.032;6.998;2023-11-21T07:36:20;50.95;;;28.85;;
35084;SDS011;21267;51.032;6.998;2023-11-21T07:38:49;43.15;;;26.95;;
35084;SDS011;21267;51.032;6.998;2023-11-21T07:41:17;45.67;;;26.60;;
35084;SDS011;21267;51.032;6.998;2023-11-21T07:43:56;43.38;;;27.77;;
35084;SDS011;21267;51.032;6.998;2023-11-21T07:46:23;49.20;;;28.53;;
35084;SDS011;21267;51.032;6.998;2023-11-21T07:48:52;51.75;;;28.48;;
35084;SDS011;21267;51.032;6.998;2023-11-21T07:51:33;50.22;;;28.52;;
35084;SDS011;21267;51.032;6.998;2023-11-21T07:54:08;52.42;;;28.85;;
35084;SDS011;21267;51.032;6.998;2023-11-21T07:56:39;48.78;;;28.98;;
35084;SDS011;21267;51.032;6.998;2023-11-21T07:59:06;53.22;;;29.55;;
35084;SDS011;21267;51.032;6.998;2023-11-21T08:01:32;51.10;;;30.50;;
35084;SDS011;21267;51.032;6.998;2023-11-21T08:04:13;50.03;;;28.33;;
35084;SDS011;21267;51.032;6.998;2023-11-21T08:06:40;54.90;;;29.57;;
35084;SDS011;21267;51.032;6.998;2023-11-21T08:09:09;50.95;;;29.33;;
35084;SDS011;21267;51.032;6.998;2023-11-21T08:11:53;48.05;;;27.60;;
35084;SDS011;21267;51.032;6.998;2023-11-21T08:14:19;51.92;;;27.98;;
35084;SDS011;21267;51.032;6.998;2023-11-21T08:17:00;51.63;;;29.33;;
35084;SDS011;21267;51.032;6.998;2023-11-21T08:19:54;49.25;;;28.58;;
35084;SDS011;21267;51.032;6.998;2023-11-21T08:22:24;53.53;;;29.42;;
35084;SDS011;21267;51.032;6.998;2023-11-21T08:25:07;51.50;;;27.85;;
35084;SDS011;21267;51.032;6.998;2023-11-21T08:27:49;54.55;;;29.50;;
35084;SDS011;21267;51.032;6.998;2023-11-21T08:30:18;52.88;;;28.23;;
35084;SDS011;21267;51.032;6.998;2023-11-21T08:33:03;52.10;;;29.73;;
35084;SDS011;21267;51.032;6.998;2023-11-21T08:35:32;60.85;;;29.83;;
35084;SDS011;21267;51.032;6.998;2023-11-21T08:38:17;58.40;;;29.02;;
35084;SDS011;21267;51.032;6.998;2023-11-21T08:40:44;58.17;;;29.88;;
35084;SDS011;21267;51.032;6.998;2023-11-21T08:43:26;63.17;;;31.20;;
35084;SDS011;21267;51.032;6.998;2023-11-21T08:45:55;63.38;;;31.73;;
35084;SDS011;21267;51.032;6.998;2023-11-21T08:48:40;59.03;;;29.23;;
35084;SDS011;21267;51.032;6.998;2023-11-21T08:51:12;62.50;;;28.65;;
35084;SDS011;21267;51.032;6.998;2023-11-21T08:53:48;62.03;;;30.10;;
35084;SDS011;21267;51.032;6.998;2023-11-21T08:56:17;63.47;;;29.15;;
35084;SDS011;21267;51.032;6.998;2023-11-21T08:59:04;59.45;;;30.73;;
35084;SDS011;21267;51.032;6.998;2023-11-21T09:01:34;67.22;;;29.80;;
35084;SDS011;21267;51.032;6.998;2023-11-21T09:04:11;64.00;;;30.20;;
35084;SDS011;21267;51.032;6.998;2023-11-21T09:06:39;66.80;;;32.13;;
35084;SDS011;21267;51.032;6.998;2023-11-21T09:09:20;58.20;;;29.63;;
35084;SDS011;21267;51.032;6.998;2023-11-21T09:11:48;61.20;;;30.83;;
35084;SDS011;21267;51.032;6.998;2023-11-21T09:14:29;57.50;;;30.70;;
35084;SDS011;21267;51.032;6.998;2023-11-21T09:17:00;58.70;;;30.08;;
35084;SDS011;21267;51.032;6.998;2023-11-21T09:19:43;61.75;;;29.88;;
35084;SDS011;21267;51.032;6.998;2023-11-21T09:22:13;61.42;;;30.48;;
35084;SDS011;21267;51.032;6.998;2023-11-21T09:24:45;67.43;;;31.50;;
35084;SDS011;21267;51.032;6.998;2023-11-21T09:27:12;59.90;;;30.52;;
35084;SDS011;21267;51.032;6.998;2023-11-21T09:29:39;64.05;;;30.73;;
35084;SDS011;21267;51.032;6.998;2023-11-21T09:32:20;67.53;;;33.20;;
35084;SDS011;21267;51.032;6.998;2023-11-21T09:37:30;62.55;;;32.20;;
35084;SDS011;21267;51.032;6.998;2023-11-21T09:39:59;62.63;;;33.92;;
35084;SDS011;21267;51.032;6.998;2023-11-21T09:42:32;70.93;;;35.05;;
35084;SDS011;21267;51.032;6.998;2023-11-21T09:45:09;68.25;;;35.25;;
35084;SDS011;21267;51.032;6.998;2023-11-21T09:50:24;60.63;;;34.72;;
35084;SDS011;21267;51.032;6.998;2023-11-21T09:53:19;62.88;;;36.65;;
35084;SDS011;21267;51.032;6.998;2023-11-21T09:55:55;66.68;;;35.42;;
35084;SDS011;21267;51.032;6.998;2023-11-21T09:58:23;61.42;;;36.42;;
35084;SDS011;21267;51.032;6.998;2023-11-21T10:00:55;69.47;;;35.45;;
35084;SDS011;21267;51.032;6.998;2023-11-21T10:03:23;74.80;;;37.78;;
35084;SDS011;21267;51.032;6.998;2023-11-21T10:05:53;67.90;;;37.25;;
35084;SDS011;21267;51.032;6.998;2023-11-21T10:08:36;68.72;;;40.13;;
35084;SDS011;21267;51.032;6.998;2023-11-21T10:11:18;63.40;;;34.97;;
35084;SDS011;21267;51.032;6.998;2023-11-21T10:13:48;52.53;;;30.42;;
35084;SDS011;21267;51.032;6.998;2023-11-21T10:16:17;52.10;;;30.25;;
35084;SDS011;21267;51.032;6.998;2023-11-21T10:18:51;47.03;;;29.20;;
35084;SDS011;21267;51.032;6.998;2023-11-21T10:21:28;49.63;;;29.38;;
35084;SDS011;21267;51.032;6.998;2023-11-21T10:23:56;57.80;;;30.80;;
35084;SDS011;21267;51.032;6.998;2023-11-21T10:26:37;61.00;;;32.47;;
35084;SDS011;21267;51.032;6.998;2023-11-21T10:29:18;47.92;;;29.45;;
35084;SDS011;21267;51.032;6.998;2023-11-21T10:31:45;49.95;;;29.52;;
35084;SDS011;21267;51.032;6.998;2023-11-21T10:34:16;48.85;;;29.33;;
35084;SDS011;21267;51.032;6.998;2023-11-21T10:36:58;56.78;;;31.10;;
35084;SDS011;21267;51.032;6.998;2023-11-21T10:39:25;53.22;;;30.33;;
35084;SDS011;21267;51.032;6.998;2023-11-21T10:42:14;52.38;;;31.10;;
35084;SDS011;21267;51.032;6.998;2023-11-21T10:45:01;47.65;;;27.48;;
35084;SDS011;21267;51.032;6.998;2023-11-21T10:47:53;46.30;;;27.50;;
35084;SDS011;21267;51.032;6.998;2023-11-21T10:50:20;49.83;;;28.20;;
35084;SDS011;21267;51.032;6.998;2023-11-21T10:53:01;53.90;;;28.98;;
35084;SDS011;21267;51.032;6.998;2023-11-21T10:55:32;53.88;;;29.13;;
35084;SDS011;21267;51.032;6.998;2023-11-21T10:58:16;58.58;;;30.90;;
35084;SDS011;21267;51.032;6.998;2023-11-21T11:00:45;47.90;;;26.75;;
35084;SDS011;21267;51.032;6.998;2023-11-21T11:03:26;54.10;;;28.95;;
35084;SDS011;21267;51.032;6.998;2023-11-21T11:05:53;61.40;;;30.73;;
35084;SDS011;21267;51.032;6.998;2023-11-21T11:08:34;52.67;;;29.70;;
35084;SDS011;21267;51.032;6.998;2023-11-21T11:11:16;53.25;;;30.52;;
35084;SDS011;21267;51.032;6.998;2023-11-21T11:13:45;56.25;;;30.20;;
35084;SDS011;21267;51.032;6.998;2023-11-21T11:16:12;52.38;;;30.38;;
35084;SDS011;21267;51.032;6.998;2023-11-21T11:18:57;53.25;;;29.17;;
35084;SDS011;21267;51.032;6.998;2023-11-21T11:24:32;52.58;;;28.75;;
35084;SDS011;21267;51.032;6.998;2023-11-21T11:30:11;50.03;;;28.05;;
35084;SDS011;21267;51.032;6.998;2023-11-21T11:33:04;56.78;;;29.13;;
35084;SDS011;21267;51.032;6.998;2023-11-21T11:36:01;57.67;;;29.50;;
35084;SDS011;21267;51.032;6.998;2023-11-21T11:38:33;50.55;;;27.30;;
35084;SDS011;21267;51.032;6.998;2023-11-21T11:41:03;52.08;;;28.10;;
35084;SDS011;21267;51.032;6.998;2023-11-21T11:43:34;53.58;;;27.25;;
35084;SDS011;21267;51.032;6.998;2023-11-21T11:46:11;52.67;;;27.38;;
35084;SDS011;21267;51.032;6.998;2023-11-21T11:48:43;56.78;;;28.48;;
35084;SDS011;21267;51.032;6.998;2023-11-21T11:51:13;57.90;;;29.50;;
35084;SDS011;21267;51.032;6.998;2023-11-21T11:53:42;56.88;;;32.00;;
35084;SDS011;21267;51.032;6.998;2023-11-21T11:56:30;63.33;;;32.60;;
35084;SDS011;21267;51.032;6.998;2023-11-21T11:59:04;49.53;;;28.27;;
35084;SDS011;21267;51.032;6.998;2023-11-21T12:01:46;55.22;;;29.30;;
35084;SDS011;21267;51.032;6.998;2023-11-21T12:04:30;61.53;;;30.10;;
35084;SDS011;21267;51.032;6.998;2023-11-21T12:07:01;54.90;;;27.75;;
35084;SDS011;21267;51.032;6.998;2023-11-21T12:09:30;51.75;;;28.58;;
35084;SDS011;21267;51.032;6.998;2023-11-21T12:12:11;59.47;;;33.80;;
35084;SDS011;21267;51.032;6.998;2023-11-21T12:14:42;69.72;;;34.92;;
35084;SDS011;21267;51.032;6.998;2023-11-21T12:17:24;68.40;;;32.40;;
35084;SDS011;21267;51.032;6.998;2023-11-21T12:19:51;64.88;;;32.67;;
35084;SDS011;21267;51.032;6.998;2023-11-21T12:22:32;56.17;;;30.02;;
35084;SDS011;21267;51.032;6.998;2023-11-21T12:25:03;53.00;;;28.20;;
35084;SDS011;21267;51.032;6.998;2023-11-21T12:27:37;56.17;;;28.52;;
35084;SDS011;21267;51.032;6.998;2023-11-21T12:30:04;56.13;;;30.23;;
35084;SDS011;21267;51.032;6.998;2023-11-21T12:32:33;56.20;;;29.27;;
35084;SDS011;21267;51.032;6.998;2023-11-21T12:35:08;56.50;;;30.05;;
35084;SDS011;21267;51.032;6.998;2023-11-21T12:37:39;60.70;;;30.17;;
35084;SDS011;21267;51.032;6.998;2023-11-21T12:40:21;59.33;;;30.33;;
35084;SDS011;21267;51.032;6.998;2023-11-21T12:42:52;58.58;;;29.40;;
35084;SDS011;21267;51.032;6.998;2023-11-21T12:45:36;64.47;;;30.88;;
35084;SDS011;21267;51.032;6.998;2023-11-21T12:48:08;68.30;;;31.17;;
35084;SDS011;21267;51.032;6.998;2023-11-21T12:50:40;64.68;;;30.27;;
35084;SDS011;21267;51.032;6.998;2023-11-21T12:53:15;63.08;;;33.30;;
35084;SDS011;21267;51.032;6.998;2023-11-21T12:56:24;64.72;;;31.23;;
35084;SDS011;21267;51.032;6.998;2023-11-21T12:59:04;62.42;;;31.75;;
35084;SDS011;21267;51.032;6.998;2023-11-21T13:01:43;65.03;;;31.92;;
35084;SDS011;21267;51.032;6.998;2023-11-21T13:06:49;77.53;;;34.78;;
35084;SDS011;21267;51.032;6.998;2023-11-21T13:09:37;60.38;;;30.25;;
35084;SDS011;21267;51.032;6.998;2023-11-21T13:12:23;58.03;;;31.23;;
35084;SDS011;21267;51.032;6.998;2023-11-21T13:15:07;50.22;;;28.42;;
35084;SDS011;21267;51.032;6.998;2023-11-21T13:18:03;78.37;;;38.47;;
35084;SDS011;21267;51.032;6.998;2023-11-21T13:20:44;56.63;;;29.77;;
35084;SDS011;21267;51.032;6.998;2023-11-21T13:23:26;53.67;;;28.52;;
35084;SDS011;21267;51.032;6.998;2023-11-21T13:25:56;49.20;;;26.63;;
35084;SDS011;21267;51.032;6.998;2023-11-21T13:28:37;54.28;;;27.88;;
35084;SDS011;21267;51.032;6.998;2023-11-21T13:31:08;44.58;;;25.88;;
35084;SDS011;21267;51.032;6.998;2023-11-21T13:33:53;50.30;;;26.45;;
35084;SDS011;21267;51.032;6.998;2023-11-21T13:36:41;53.17;;;26.08;;
35084;SDS011;21267;51.032;6.998;2023-11-21T13:39:09;47.75;;;25.55;;
35084;SDS011;21267;51.032;6.998;2023-11-21T13:41:55;54.72;;;27.42;;
35084;SDS011;21267;51.032;6.998;2023-11-21T13:46:55;48.83;;;25.13;;
35084;SDS011;21267;51.032;6.998;2023-11-21T13:49:31;48.05;;;25.13;;
35084;SDS011;21267;51.032;6.998;2023-11-21T13:52:07;44.55;;;25.52;;
35084;SDS011;21267;51.032;6.998;2023-11-21T13:54:35;51.08;;;26.55;;
35084;SDS011;21267;51.032;6.998;2023-11-21T13:57:03;53.03;;;26.83;;
35084;SDS011;21267;51.032;6.998;2023-11-21T13:59:36;52.10;;;25.30;;
35084;SDS011;21267;51.032;6.998;2023-11-21T14:04:45;55.08;;;26.75;;
35084;SDS011;21267;51.032;6.998;2023-11-21T14:07:30;48.40;;;25.83;;
35084;SDS011;21267;51.032;6.998;2023-11-21T14:10:02;48.03;;;26.90;;
35084;SDS011;21267;51.032;6.998;2023-11-21T14:12:50;57.03;;;29.05;;
35084;SDS011;21267;51.032;6.998;2023-11-21T14:15:24;64.18;;;30.27;;
35084;SDS011;21267;51.032;6.998;2023-11-21T14:18:17;57.47;;;30.60;;
35084;SDS011;21267;51.032;6.998;2023-11-21T14:21:27;61.08;;;31.92;;
35084;SDS011;21267;51.032;6.998;2023-11-21T14:23:48;58.58;;;31.48;;
35084;SDS011;21267;51.032;6.998;2023-11-21T14:26:15;55.97;;;30.55;;
35084;SDS011;21267;51.032;6.998;2023-11-21T14:29:01;55.53;;;31.27;;
35084;SDS011;21267;51.032;6.998;2023-11-21T14:31:31;67.25;;;32.47;;
35084;SDS011;21267;51.032;6.998;2023-11-21T14:34:13;62.75;;;31.40;;
35084;SDS011;21267;51.032;6.998;2023-11-21T14:36:45;63.25;;;32.83;;
35084;SDS011;21267;51.032;6.998;2023-11-21T14:39:26;66.90;;;33.50;;
35084;SDS011;21267;51.032;6.998;2023-11-21T14:42:03;58.38;;;31.85;;
35084;SDS011;21267;51.032;6.998;2023-11-21T14:44:31;61.00;;;30.70;;
35084;SDS011;21267;51.032;6.998;2023-11-21T14:47:06;67.82;;;31.90;;
35084;SDS011;21267;51.032;6.998;2023-11-21T14:49:51;66.22;;;31.40;;
35084;SDS011;21267;51.032;6.998;2023-11-21T14:52:24;71.57;;;32.28;;
35084;SDS011;21267;51.032;6.998;2023-11-21T14:55:28;73.18;;;33.67;;
35084;SDS011;21267;51.032;6.998;2023-11-21T14:57:58;70.75;;;33.53;;
35084;SDS011;21267;51.032;6.998;2023-11-21T15:00:30;81.03;;;36.50;;
35084;SDS011;21267;51.032;6.998;2023-11-21T15:03:04;74.07;;;34.83;;
35084;SDS011;21267;51.032;6.998;2023-11-21T15:05:36;71.05;;;34.47;;
35084;SDS011;21267;51.032;6.998;2023-11-21T15:08:08;75.68;;;38.28;;
35084;SDS011;21267;51.032;6.998;2023-11-21T15:10:47;73.85;;;37.08;;
35084;SDS011;21267;51.032;6.998;2023-11-21T15:13:20;81.75;;;37.58;;
35084;SDS011;21267;51.032;6.998;2023-11-21T15:16:04;74.63;;;34.53;;
35084;SDS011;21267;51.032;6.998;2023-11-21T15:18:35;77.60;;;34.40;;
35084;SDS011;21267;51.032;6.998;2023-11-21T15:21:06;74.05;;;33.88;;
35084;SDS011;21267;51.032;6.998;2023-11-21T15:23:52;77.55;;;34.55;;
35084;SDS011;21267;51.032;6.998;2023-11-21T15:26:19;78.82;;;36.17;;
35084;SDS011;21267;51.032;6.998;2023-11-21T15:28:59;83.05;;;35.15;;